DAAT/TMR METAR and TAF weather

Enter ICAO airport designator
Station Type Date Time Source
DAAT METAR 2019/10/21 03:00 UTC NOAA

DAAT 210300Z 09004KT 9999 FEW046 20/04 Q1022


Station Type Date Time Source
DAAT Decoded METAR 2019/10/21 03:00 UTC NOAA

Tamanrasset / Aguenna, Algeria (DAAT) 22-49N 005-28E
Oct 20, 2019 - 11:00 PM EDT / 2019.10.21 0300 UTC
Wind: from the E (090 degrees) at 5 MPH (4 KT):0
Visibility: greater than 7 mile(s):0
Sky conditions: mostly clear
Temperature: 68 F (20 C)
Dew Point: 39 F (4 C)
Relative Humidity: 34%
Pressure (altimeter): 30.18 in. Hg (1022 hPa)
ob: DAAT 210300Z 09004KT 9999 FEW046 20/04 Q1022
cycle: 3

Station Type Date Time Source
DAAT TAF 2019/10/20 18:33 UTC NOAA

TAF DAAT 201700Z 2018/2118 16012KT 9999 FEW046 SCT100 PROB30
TEMPO 2018/2021 5000 HZ FEW040TCU
BECMG 2019/2021 04010KT
BECMG 2107/2111 14012KT PROB40
TEMPO 2112/2118 FEW040CB SCT046TCU

Example: see airport list